sensor_id;sensor_type;location;lat;lon;timestamp;P1;durP1;ratioP1;P2;durP2;ratioP2
9823;SDS011;4951;50.778;7.196;2023-04-03T00:00:12;3.30;;;2.30;;
9823;SDS011;4951;50.778;7.196;2023-04-03T00:02:51;3.37;;;2.47;;
9823;SDS011;4951;50.778;7.196;2023-04-03T00:05:18;3.90;;;2.50;;
9823;SDS011;4951;50.778;7.196;2023-04-03T00:07:54;4.10;;;2.57;;
9823;SDS011;4951;50.778;7.196;2023-04-03T00:10:23;4.20;;;3.20;;
9823;SDS011;4951;50.778;7.196;2023-04-03T00:12:52;3.10;;;2.20;;
9823;SDS011;4951;50.778;7.196;2023-04-03T00:15:28;3.63;;;2.40;;
9823;SDS011;4951;50.778;7.196;2023-04-03T00:18:11;4.07;;;2.63;;
9823;SDS011;4951;50.778;7.196;2023-04-03T00:20:45;2.63;;;2.20;;
9823;SDS011;4951;50.778;7.196;2023-04-03T00:23:17;4.47;;;2.30;;
9823;SDS011;4951;50.778;7.196;2023-04-03T00:25:50;4.60;;;2.50;;
9823;SDS011;4951;50.778;7.196;2023-04-03T00:28:39;3.60;;;2.53;;
9823;SDS011;4951;50.778;7.196;2023-04-03T00:31:23;3.60;;;2.20;;
9823;SDS011;4951;50.778;7.196;2023-04-03T00:34:06;4.40;;;2.00;;
9823;SDS011;4951;50.778;7.196;2023-04-03T00:36:40;3.20;;;2.17;;
9823;SDS011;4951;50.778;7.196;2023-04-03T00:39:10;3.30;;;2.30;;
9823;SDS011;4951;50.778;7.196;2023-04-03T00:41:47;2.87;;;2.13;;
9823;SDS011;4951;50.778;7.196;2023-04-03T00:47:29;3.13;;;2.13;;
9823;SDS011;4951;50.778;7.196;2023-04-03T00:50:12;4.03;;;2.10;;
9823;SDS011;4951;50.778;7.196;2023-04-03T00:52:53;3.00;;;2.20;;
9823;SDS011;4951;50.778;7.196;2023-04-03T00:56:08;4.57;;;2.43;;
9823;SDS011;4951;50.778;7.196;2023-04-03T00:59:04;3.37;;;2.00;;
9823;SDS011;4951;50.778;7.196;2023-04-03T01:01:33;4.80;;;2.03;;
9823;SDS011;4951;50.778;7.196;2023-04-03T01:04:02;3.97;;;2.20;;
9823;SDS011;4951;50.778;7.196;2023-04-03T01:06:39;2.57;;;2.00;;
9823;SDS011;4951;50.778;7.196;2023-04-03T01:14:49;3.53;;;2.13;;
9823;SDS011;4951;50.778;7.196;2023-04-03T01:17:29;4.17;;;2.20;;
9823;SDS011;4951;50.778;7.196;2023-04-03T01:23:36;4.90;;;2.30;;
9823;SDS011;4951;50.778;7.196;2023-04-03T01:26:34;3.60;;;2.20;;
9823;SDS011;4951;50.778;7.196;2023-04-03T01:29:07;2.63;;;1.93;;
9823;SDS011;4951;50.778;7.196;2023-04-03T01:32:12;4.07;;;2.17;;
9823;SDS011;4951;50.778;7.196;2023-04-03T01:34:46;3.20;;;2.30;;
9823;SDS011;4951;50.778;7.196;2023-04-03T01:37:14;2.10;;;1.90;;
9823;SDS011;4951;50.778;7.196;2023-04-03T01:39:45;3.20;;;2.10;;
9823;SDS011;4951;50.778;7.196;2023-04-03T01:42:16;3.23;;;2.20;;
9823;SDS011;4951;50.778;7.196;2023-04-03T01:44:59;3.70;;;2.07;;
9823;SDS011;4951;50.778;7.196;2023-04-03T01:47:38;2.60;;;1.90;;
9823;SDS011;4951;50.778;7.196;2023-04-03T01:50:09;3.47;;;2.00;;
9823;SDS011;4951;50.778;7.196;2023-04-03T01:52:39;2.93;;;1.90;;
9823;SDS011;4951;50.778;7.196;2023-04-03T01:55:14;3.17;;;2.30;;
9823;SDS011;4951;50.778;7.196;2023-04-03T01:57:45;3.17;;;2.17;;
9823;SDS011;4951;50.778;7.196;2023-04-03T02:00:13;3.27;;;2.00;;
9823;SDS011;4951;50.778;7.196;2023-04-03T02:02:48;3.57;;;2.10;;
9823;SDS011;4951;50.778;7.196;2023-04-03T02:05:17;2.77;;;2.07;;
9823;SDS011;4951;50.778;7.196;2023-04-03T02:07:52;2.63;;;2.00;;
9823;SDS011;4951;50.778;7.196;2023-04-03T02:10:29;2.30;;;2.10;;
9823;SDS011;4951;50.778;7.196;2023-04-03T02:13:01;2.43;;;2.17;;
9823;SDS011;4951;50.778;7.196;2023-04-03T02:15:30;2.73;;;1.90;;
9823;SDS011;4951;50.778;7.196;2023-04-03T02:18:08;4.00;;;2.33;;
9823;SDS011;4951;50.778;7.196;2023-04-03T02:20:54;3.43;;;2.20;;
9823;SDS011;4951;50.778;7.196;2023-04-03T02:23:24;3.40;;;2.30;;
9823;SDS011;4951;50.778;7.196;2023-04-03T02:28:54;4.70;;;2.67;;
9823;SDS011;4951;50.778;7.196;2023-04-03T02:31:21;3.43;;;2.50;;
9823;SDS011;4951;50.778;7.196;2023-04-03T02:33:53;4.43;;;2.77;;
9823;SDS011;4951;50.778;7.196;2023-04-03T02:36:24;4.30;;;2.40;;
9823;SDS011;4951;50.778;7.196;2023-04-03T02:39:06;3.77;;;2.67;;
9823;SDS011;4951;50.778;7.196;2023-04-03T02:41:34;3.33;;;2.40;;
9823;SDS011;4951;50.778;7.196;2023-04-03T02:44:13;6.07;;;2.50;;
9823;SDS011;4951;50.778;7.196;2023-04-03T02:46:44;3.60;;;2.13;;
9823;SDS011;4951;50.778;7.196;2023-04-03T02:49:20;4.37;;;2.60;;
9823;SDS011;4951;50.778;7.196;2023-04-03T02:51:47;4.10;;;2.40;;
9823;SDS011;4951;50.778;7.196;2023-04-03T02:54:14;3.80;;;2.87;;
9823;SDS011;4951;50.778;7.196;2023-04-03T02:57:05;5.60;;;3.37;;
9823;SDS011;4951;50.778;7.196;2023-04-03T02:59:34;4.27;;;2.37;;
9823;SDS011;4951;50.778;7.196;2023-04-03T03:02:15;5.20;;;2.60;;
9823;SDS011;4951;50.778;7.196;2023-04-03T03:04:58;3.97;;;2.63;;
9823;SDS011;4951;50.778;7.196;2023-04-03T03:07:35;3.63;;;2.40;;
9823;SDS011;4951;50.778;7.196;2023-04-03T03:10:06;4.90;;;2.60;;
9823;SDS011;4951;50.778;7.196;2023-04-03T03:12:36;4.87;;;2.47;;
9823;SDS011;4951;50.778;7.196;2023-04-03T03:15:03;5.00;;;2.03;;
9823;SDS011;4951;50.778;7.196;2023-04-03T03:17:31;3.37;;;1.97;;
9823;SDS011;4951;50.778;7.196;2023-04-03T03:20:03;4.00;;;2.20;;
9823;SDS011;4951;50.778;7.196;2023-04-03T03:23:15;4.73;;;2.50;;
9823;SDS011;4951;50.778;7.196;2023-04-03T03:25:53;4.77;;;2.10;;
9823;SDS011;4951;50.778;7.196;2023-04-03T03:28:21;4.37;;;2.20;;
9823;SDS011;4951;50.778;7.196;2023-04-03T03:30:52;4.27;;;2.47;;
9823;SDS011;4951;50.778;7.196;2023-04-03T03:33:27;4.10;;;2.27;;
9823;SDS011;4951;50.778;7.196;2023-04-03T03:38:57;2.67;;;2.17;;
9823;SDS011;4951;50.778;7.196;2023-04-03T03:41:31;5.20;;;2.20;;
9823;SDS011;4951;50.778;7.196;2023-04-03T03:43:59;2.90;;;2.03;;
9823;SDS011;4951;50.778;7.196;2023-04-03T03:46:34;2.57;;;2.20;;
9823;SDS011;4951;50.778;7.196;2023-04-03T03:49:09;3.47;;;2.23;;
9823;SDS011;4951;50.778;7.196;2023-04-03T03:51:45;2.53;;;2.03;;
9823;SDS011;4951;50.778;7.196;2023-04-03T03:54:12;2.77;;;2.00;;
9823;SDS011;4951;50.778;7.196;2023-04-03T03:56:41;3.63;;;2.20;;
9823;SDS011;4951;50.778;7.196;2023-04-03T03:59:10;4.57;;;2.33;;
9823;SDS011;4951;50.778;7.196;2023-04-03T04:01:43;3.40;;;2.30;;
9823;SDS011;4951;50.778;7.196;2023-04-03T04:04:11;2.63;;;2.40;;
9823;SDS011;4951;50.778;7.196;2023-04-03T04:06:42;4.47;;;2.67;;
9823;SDS011;4951;50.778;7.196;2023-04-03T04:09:16;5.40;;;2.60;;
9823;SDS011;4951;50.778;7.196;2023-04-03T04:11:44;3.80;;;2.17;;
9823;SDS011;4951;50.778;7.196;2023-04-03T04:14:18;4.03;;;2.30;;
9823;SDS011;4951;50.778;7.196;2023-04-03T04:16:53;4.27;;;2.43;;
9823;SDS011;4951;50.778;7.196;2023-04-03T04:19:25;3.83;;;2.43;;
9823;SDS011;4951;50.778;7.196;2023-04-03T04:27:37;3.90;;;2.20;;
9823;SDS011;4951;50.778;7.196;2023-04-03T04:30:28;4.03;;;2.30;;
9823;SDS011;4951;50.778;7.196;2023-04-03T04:32:57;2.67;;;2.10;;
9823;SDS011;4951;50.778;7.196;2023-04-03T04:35:37;3.33;;;2.27;;
9823;SDS011;4951;50.778;7.196;2023-04-03T04:38:12;3.90;;;2.23;;
9823;SDS011;4951;50.778;7.196;2023-04-03T04:40:44;5.80;;;2.33;;
9823;SDS011;4951;50.778;7.196;2023-04-03T04:43:14;2.40;;;2.00;;
9823;SDS011;4951;50.778;7.196;2023-04-03T04:45:49;4.87;;;2.57;;
9823;SDS011;4951;50.778;7.196;2023-04-03T04:48:42;5.10;;;2.30;;
9823;SDS011;4951;50.778;7.196;2023-04-03T04:51:17;3.70;;;2.53;;
9823;SDS011;4951;50.778;7.196;2023-04-03T04:53:50;3.87;;;2.23;;
9823;SDS011;4951;50.778;7.196;2023-04-03T04:56:29;4.00;;;2.10;;
9823;SDS011;4951;50.778;7.196;2023-04-03T04:59:03;4.47;;;2.23;;
9823;SDS011;4951;50.778;7.196;2023-04-03T05:01:31;4.83;;;2.30;;
9823;SDS011;4951;50.778;7.196;2023-04-03T05:04:06;5.70;;;2.40;;
9823;SDS011;4951;50.778;7.196;2023-04-03T05:07:25;4.00;;;2.53;;
9823;SDS011;4951;50.778;7.196;2023-04-03T05:10:19;4.17;;;2.40;;
9823;SDS011;4951;50.778;7.196;2023-04-03T05:12:59;3.83;;;2.50;;
9823;SDS011;4951;50.778;7.196;2023-04-03T05:15:26;5.33;;;2.23;;
9823;SDS011;4951;50.778;7.196;2023-04-03T05:17:57;2.90;;;2.27;;
9823;SDS011;4951;50.778;7.196;2023-04-03T05:20:29;4.80;;;2.80;;
9823;SDS011;4951;50.778;7.196;2023-04-03T05:22:59;4.80;;;2.30;;
9823;SDS011;4951;50.778;7.196;2023-04-03T05:25:29;4.27;;;2.50;;
9823;SDS011;4951;50.778;7.196;2023-04-03T05:30:52;4.90;;;2.43;;
9823;SDS011;4951;50.778;7.196;2023-04-03T05:33:23;4.20;;;2.30;;
9823;SDS011;4951;50.778;7.196;2023-04-03T05:36:01;4.70;;;2.40;;
9823;SDS011;4951;50.778;7.196;2023-04-03T05:38:32;3.37;;;2.30;;
9823;SDS011;4951;50.778;7.196;2023-04-03T05:41:03;3.87;;;2.20;;
9823;SDS011;4951;50.778;7.196;2023-04-03T05:43:41;3.37;;;2.17;;
9823;SDS011;4951;50.778;7.196;2023-04-03T05:46:16;4.10;;;2.20;;
9823;SDS011;4951;50.778;7.196;2023-04-03T05:48:49;3.97;;;2.20;;
9823;SDS011;4951;50.778;7.196;2023-04-03T05:51:25;3.60;;;2.17;;
9823;SDS011;4951;50.778;7.196;2023-04-03T05:54:18;5.57;;;2.77;;
9823;SDS011;4951;50.778;7.196;2023-04-03T05:57:19;5.10;;;2.53;;
9823;SDS011;4951;50.778;7.196;2023-04-03T06:03:02;3.27;;;2.63;;
9823;SDS011;4951;50.778;7.196;2023-04-03T06:06:12;3.90;;;2.30;;
9823;SDS011;4951;50.778;7.196;2023-04-03T06:08:41;5.37;;;2.57;;
9823;SDS011;4951;50.778;7.196;2023-04-03T06:11:21;3.53;;;2.43;;
9823;SDS011;4951;50.778;7.196;2023-04-03T06:14:02;5.00;;;2.70;;
9823;SDS011;4951;50.778;7.196;2023-04-03T06:16:30;4.10;;;2.50;;
9823;SDS011;4951;50.778;7.196;2023-04-03T06:19:00;4.93;;;2.27;;
9823;SDS011;4951;50.778;7.196;2023-04-03T06:21:30;6.70;;;2.80;;
9823;SDS011;4951;50.778;7.196;2023-04-03T06:23:58;2.73;;;2.10;;
9823;SDS011;4951;50.778;7.196;2023-04-03T06:26:26;2.87;;;2.00;;
9823;SDS011;4951;50.778;7.196;2023-04-03T06:29:11;5.27;;;2.20;;
9823;SDS011;4951;50.778;7.196;2023-04-03T06:31:42;4.43;;;2.03;;
9823;SDS011;4951;50.778;7.196;2023-04-03T06:34:10;2.83;;;1.70;;
9823;SDS011;4951;50.778;7.196;2023-04-03T06:36:44;4.20;;;2.20;;
9823;SDS011;4951;50.778;7.196;2023-04-03T06:39:18;4.80;;;2.27;;
9823;SDS011;4951;50.778;7.196;2023-04-03T06:42:13;3.70;;;2.13;;
9823;SDS011;4951;50.778;7.196;2023-04-03T06:45:10;5.07;;;1.63;;
9823;SDS011;4951;50.778;7.196;2023-04-03T06:47:46;5.73;;;2.10;;
9823;SDS011;4951;50.778;7.196;2023-04-03T06:50:27;3.27;;;1.90;;
9823;SDS011;4951;50.778;7.196;2023-04-03T06:53:17;5.10;;;2.00;;
9823;SDS011;4951;50.778;7.196;2023-04-03T06:55:48;4.27;;;2.00;;
9823;SDS011;4951;50.778;7.196;2023-04-03T06:58:17;3.93;;;1.97;;
9823;SDS011;4951;50.778;7.196;2023-04-03T07:00:48;4.50;;;2.07;;
9823;SDS011;4951;50.778;7.196;2023-04-03T07:03:22;3.77;;;1.90;;
9823;SDS011;4951;50.778;7.196;2023-04-03T07:06:00;4.80;;;2.30;;
9823;SDS011;4951;50.778;7.196;2023-04-03T07:08:28;7.13;;;2.30;;
9823;SDS011;4951;50.778;7.196;2023-04-03T07:11:11;4.53;;;1.97;;
9823;SDS011;4951;50.778;7.196;2023-04-03T07:13:59;4.23;;;2.10;;
9823;SDS011;4951;50.778;7.196;2023-04-03T07:16:42;6.50;;;2.40;;
9823;SDS011;4951;50.778;7.196;2023-04-03T07:19:14;5.93;;;1.90;;
9823;SDS011;4951;50.778;7.196;2023-04-03T07:21:48;3.13;;;2.10;;
9823;SDS011;4951;50.778;7.196;2023-04-03T07:24:19;4.30;;;2.23;;
9823;SDS011;4951;50.778;7.196;2023-04-03T07:26:52;5.20;;;2.20;;
9823;SDS011;4951;50.778;7.196;2023-04-03T07:29:51;4.33;;;1.90;;
9823;SDS011;4951;50.778;7.196;2023-04-03T07:32:39;5.10;;;2.47;;
9823;SDS011;4951;50.778;7.196;2023-04-03T07:35:07;6.17;;;2.20;;
9823;SDS011;4951;50.778;7.196;2023-04-03T07:41:29;3.07;;;1.90;;
9823;SDS011;4951;50.778;7.196;2023-04-03T07:43:59;4.07;;;2.13;;
9823;SDS011;4951;50.778;7.196;2023-04-03T07:46:47;4.10;;;2.00;;
9823;SDS011;4951;50.778;7.196;2023-04-03T07:49:59;6.47;;;2.20;;
9823;SDS011;4951;50.778;7.196;2023-04-03T07:55:37;4.10;;;2.03;;
9823;SDS011;4951;50.778;7.196;2023-04-03T07:58:20;4.83;;;1.83;;
9823;SDS011;4951;50.778;7.196;2023-04-03T08:00:49;3.87;;;2.00;;
9823;SDS011;4951;50.778;7.196;2023-04-03T08:03:20;5.70;;;2.37;;
9823;SDS011;4951;50.778;7.196;2023-04-03T08:05:48;5.20;;;2.60;;
9823;SDS011;4951;50.778;7.196;2023-04-03T08:08:32;5.53;;;2.10;;
9823;SDS011;4951;50.778;7.196;2023-04-03T08:11:04;3.43;;;2.07;;
9823;SDS011;4951;50.778;7.196;2023-04-03T08:14:18;3.43;;;1.90;;
9823;SDS011;4951;50.778;7.196;2023-04-03T08:16:53;4.47;;;2.33;;
9823;SDS011;4951;50.778;7.196;2023-04-03T08:19:27;5.77;;;2.17;;
9823;SDS011;4951;50.778;7.196;2023-04-03T08:21:59;5.17;;;2.27;;
9823;SDS011;4951;50.778;7.196;2023-04-03T08:24:28;3.27;;;1.83;;
9823;SDS011;4951;50.778;7.196;2023-04-03T08:27:28;4.70;;;2.53;;
9823;SDS011;4951;50.778;7.196;2023-04-03T08:30:16;4.40;;;1.80;;
9823;SDS011;4951;50.778;7.196;2023-04-03T08:32:55;4.93;;;1.90;;
9823;SDS011;4951;50.778;7.196;2023-04-03T08:35:26;3.80;;;1.80;;
9823;SDS011;4951;50.778;7.196;2023-04-03T08:38:06;4.50;;;1.80;;
9823;SDS011;4951;50.778;7.196;2023-04-03T08:40:36;4.57;;;1.80;;
9823;SDS011;4951;50.778;7.196;2023-04-03T08:43:20;2.93;;;1.67;;
9823;SDS011;4951;50.778;7.196;2023-04-03T08:46:14;3.07;;;1.73;;
9823;SDS011;4951;50.778;7.196;2023-04-03T08:48:52;6.80;;;1.90;;
9823;SDS011;4951;50.778;7.196;2023-04-03T08:51:20;3.77;;;1.67;;
9823;SDS011;4951;50.778;7.196;2023-04-03T08:54:06;4.10;;;2.10;;
9823;SDS011;4951;50.778;7.196;2023-04-03T08:56:58;4.40;;;1.77;;
9823;SDS011;4951;50.778;7.196;2023-04-03T09:03:36;3.87;;;1.50;;
9823;SDS011;4951;50.778;7.196;2023-04-03T09:06:12;4.37;;;1.83;;
9823;SDS011;4951;50.778;7.196;2023-04-03T09:08:56;4.67;;;1.93;;
9823;SDS011;4951;50.778;7.196;2023-04-03T09:12:04;5.57;;;2.03;;
9823;SDS011;4951;50.778;7.196;2023-04-03T09:14:49;4.80;;;1.70;;
9823;SDS011;4951;50.778;7.196;2023-04-03T09:17:37;3.23;;;1.70;;
9823;SDS011;4951;50.778;7.196;2023-04-03T09:20:33;4.50;;;1.70;;
9823;SDS011;4951;50.778;7.196;2023-04-03T09:23:28;2.47;;;1.57;;
9823;SDS011;4951;50.778;7.196;2023-04-03T09:26:28;3.33;;;1.53;;
9823;SDS011;4951;50.778;7.196;2023-04-03T09:29:39;4.50;;;1.80;;
9823;SDS011;4951;50.778;7.196;2023-04-03T09:32:18;4.27;;;1.90;;
9823;SDS011;4951;50.778;7.196;2023-04-03T09:35:04;2.30;;;1.77;;
9823;SDS011;4951;50.778;7.196;2023-04-03T09:41:06;1.80;;;1.40;;
9823;SDS011;4951;50.778;7.196;2023-04-03T09:44:17;2.40;;;1.70;;
9823;SDS011;4951;50.778;7.196;2023-04-03T09:46:55;3.80;;;1.90;;
9823;SDS011;4951;50.778;7.196;2023-04-03T09:49:23;3.47;;;1.80;;
9823;SDS011;4951;50.778;7.196;2023-04-03T09:52:20;4.17;;;1.57;;
9823;SDS011;4951;50.778;7.196;2023-04-03T09:59:12;5.00;;;2.10;;
9823;SDS011;4951;50.778;7.196;2023-04-03T10:01:58;3.63;;;1.53;;
9823;SDS011;4951;50.778;7.196;2023-04-03T10:08:19;2.80;;;1.67;;
9823;SDS011;4951;50.778;7.196;2023-04-03T10:11:06;3.00;;;1.80;;
9823;SDS011;4951;50.778;7.196;2023-04-03T10:14:16;3.07;;;1.73;;
9823;SDS011;4951;50.778;7.196;2023-04-03T10:16:50;2.87;;;1.67;;
9823;SDS011;4951;50.778;7.196;2023-04-03T10:19:30;3.20;;;1.73;;
9823;SDS011;4951;50.778;7.196;2023-04-03T10:22:22;2.50;;;1.60;;
9823;SDS011;4951;50.778;7.196;2023-04-03T10:25:07;2.47;;;1.30;;
9823;SDS011;4951;50.778;7.196;2023-04-03T10:28:03;2.10;;;1.40;;
9823;SDS011;4951;50.778;7.196;2023-04-03T10:30:49;3.73;;;1.53;;
9823;SDS011;4951;50.778;7.196;2023-04-03T10:33:28;3.00;;;1.37;;
9823;SDS011;4951;50.778;7.196;2023-04-03T10:36:10;1.93;;;1.50;;
9823;SDS011;4951;50.778;7.196;2023-04-03T10:39:12;2.90;;;1.57;;
9823;SDS011;4951;50.778;7.196;2023-04-03T10:42:13;3.93;;;1.70;;
9823;SDS011;4951;50.778;7.196;2023-04-03T10:45:11;3.03;;;1.43;;
9823;SDS011;4951;50.778;7.196;2023-04-03T10:48:10;3.03;;;1.60;;
9823;SDS011;4951;50.778;7.196;2023-04-03T10:50:43;4.03;;;1.90;;
9823;SDS011;4951;50.778;7.196;2023-04-03T10:53:46;2.93;;;1.50;;
9823;SDS011;4951;50.778;7.196;2023-04-03T10:56:29;3.40;;;1.67;;
9823;SDS011;4951;50.778;7.196;2023-04-03T11:02:19;2.63;;;1.50;;
9823;SDS011;4951;50.778;7.196;2023-04-03T11:05:03;3.23;;;1.40;;
9823;SDS011;4951;50.778;7.196;2023-04-03T11:07:37;2.50;;;1.43;;
9823;SDS011;4951;50.778;7.196;2023-04-03T11:10:09;1.87;;;1.50;;
9823;SDS011;4951;50.778;7.196;2023-04-03T11:13:06;5.37;;;1.50;;
9823;SDS011;4951;50.778;7.196;2023-04-03T11:16:01;2.27;;;1.40;;
9823;SDS011;4951;50.778;7.196;2023-04-03T11:18:41;3.73;;;1.77;;
9823;SDS011;4951;50.778;7.196;2023-04-03T11:21:39;3.60;;;1.47;;
9823;SDS011;4951;50.778;7.196;2023-04-03T11:24:25;3.43;;;1.60;;
9823;SDS011;4951;50.778;7.196;2023-04-03T11:27:13;2.73;;;1.60;;
9823;SDS011;4951;50.778;7.196;2023-04-03T11:29:58;2.57;;;1.33;;
9823;SDS011;4951;50.778;7.196;2023-04-03T11:32:40;2.60;;;1.30;;
9823;SDS011;4951;50.778;7.196;2023-04-03T11:35:31;2.63;;;1.33;;
9823;SDS011;4951;50.778;7.196;2023-04-03T11:38:13;3.20;;;1.40;;
9823;SDS011;4951;50.778;7.196;2023-04-03T11:41:10;3.73;;;1.37;;
9823;SDS011;4951;50.778;7.196;2023-04-03T11:43:56;2.43;;;1.43;;
9823;SDS011;4951;50.778;7.196;2023-04-03T11:46:57;4.50;;;1.60;;
9823;SDS011;4951;50.778;7.196;2023-04-03T11:50:03;2.33;;;1.40;;
9823;SDS011;4951;50.778;7.196;2023-04-03T11:56:26;1.50;;;1.40;;
9823;SDS011;4951;50.778;7.196;2023-04-03T11:59:23;3.30;;;1.60;;
9823;SDS011;4951;50.778;7.196;2023-04-03T12:02:13;1.77;;;1.50;;
9823;SDS011;4951;50.778;7.196;2023-04-03T12:14:31;2.10;;;1.37;;
9823;SDS011;4951;50.778;7.196;2023-04-03T12:17:33;2.73;;;1.30;;
9823;SDS011;4951;50.778;7.196;2023-04-03T12:23:23;2.37;;;1.40;;
9823;SDS011;4951;50.778;7.196;2023-04-03T12:26:25;1.73;;;1.30;;
9823;SDS011;4951;50.778;7.196;2023-04-03T12:35:43;3.20;;;1.60;;
9823;SDS011;4951;50.778;7.196;2023-04-03T12:41:50;1.97;;;1.30;;
9823;SDS011;4951;50.778;7.196;2023-04-03T12:44:31;2.90;;;1.60;;
9823;SDS011;4951;50.778;7.196;2023-04-03T12:47:26;3.33;;;1.50;;
9823;SDS011;4951;50.778;7.196;2023-04-03T12:50:16;2.60;;;1.30;;
9823;SDS011;4951;50.778;7.196;2023-04-03T12:59:16;3.33;;;1.30;;
9823;SDS011;4951;50.778;7.196;2023-04-03T13:01:56;2.17;;;1.50;;
9823;SDS011;4951;50.778;7.196;2023-04-03T13:04:46;3.60;;;1.87;;
9823;SDS011;4951;50.778;7.196;2023-04-03T13:07:22;2.80;;;1.50;;
9823;SDS011;4951;50.778;7.196;2023-04-03T13:09:58;1.83;;;1.50;;
9823;SDS011;4951;50.778;7.196;2023-04-03T13:12:34;3.17;;;1.43;;
9823;SDS011;4951;50.778;7.196;2023-04-03T13:15:14;1.70;;;1.30;;
9823;SDS011;4951;50.778;7.196;2023-04-03T13:17:45;1.53;;;1.30;;
9823;SDS011;4951;50.778;7.196;2023-04-03T13:20:17;2.13;;;1.33;;
9823;SDS011;4951;50.778;7.196;2023-04-03T13:23:14;1.30;;;1.13;;
9823;SDS011;4951;50.778;7.196;2023-04-03T13:25:59;3.57;;;1.50;;
9823;SDS011;4951;50.778;7.196;2023-04-03T13:28:29;2.70;;;1.60;;
9823;SDS011;4951;50.778;7.196;2023-04-03T13:31:08;1.67;;;1.27;;
9823;SDS011;4951;50.778;7.196;2023-04-03T13:33:53;3.00;;;1.53;;
9823;SDS011;4951;50.778;7.196;2023-04-03T13:36:28;3.60;;;1.70;;
9823;SDS011;4951;50.778;7.196;2023-04-03T13:39:05;2.77;;;1.40;;
9823;SDS011;4951;50.778;7.196;2023-04-03T13:48:22;1.93;;;1.70;;
9823;SDS011;4951;50.778;7.196;2023-04-03T13:50:57;2.23;;;1.40;;
9823;SDS011;4951;50.778;7.196;2023-04-03T13:53:33;2.37;;;1.40;;
9823;SDS011;4951;50.778;7.196;2023-04-03T13:56:17;2.80;;;1.60;;
9823;SDS011;4951;50.778;7.196;2023-04-03T13:58:59;2.10;;;1.70;;
9823;SDS011;4951;50.778;7.196;2023-04-03T14:01:37;3.77;;;1.63;;
9823;SDS011;4951;50.778;7.196;2023-04-03T14:04:27;2.37;;;1.50;;
9823;SDS011;4951;50.778;7.196;2023-04-03T14:06:57;2.70;;;1.30;;
9823;SDS011;4951;50.778;7.196;2023-04-03T14:12:27;2.30;;;1.67;;
9823;SDS011;4951;50.778;7.196;2023-04-03T14:14:59;2.03;;;1.70;;
9823;SDS011;4951;50.778;7.196;2023-04-03T14:17:34;2.60;;;1.57;;
9823;SDS011;4951;50.778;7.196;2023-04-03T14:20:53;5.10;;;1.67;;
9823;SDS011;4951;50.778;7.196;2023-04-03T14:23:23;3.10;;;1.60;;
9823;SDS011;4951;50.778;7.196;2023-04-03T14:25:53;3.93;;;1.60;;
9823;SDS011;4951;50.778;7.196;2023-04-03T14:28:21;4.53;;;1.63;;
9823;SDS011;4951;50.778;7.196;2023-04-03T14:30:51;2.60;;;1.67;;
9823;SDS011;4951;50.778;7.196;2023-04-03T14:33:29;4.13;;;1.97;;
9823;SDS011;4951;50.778;7.196;2023-04-03T14:36:01;2.97;;;1.57;;
9823;SDS011;4951;50.778;7.196;2023-04-03T14:38:49;2.28;;;1.50;;
9823;SDS011;4951;50.778;7.196;2023-04-03T14:41:21;2.57;;;1.70;;
9823;SDS011;4951;50.778;7.196;2023-04-03T14:44:27;3.27;;;1.70;;
9823;SDS011;4951;50.778;7.196;2023-04-03T14:47:03;3.00;;;1.60;;
9823;SDS011;4951;50.778;7.196;2023-04-03T14:49:34;2.83;;;1.67;;
9823;SDS011;4951;50.778;7.196;2023-04-03T14:52:20;2.17;;;1.50;;
9823;SDS011;4951;50.778;7.196;2023-04-03T14:54:55;3.20;;;1.90;;
9823;SDS011;4951;50.778;7.196;2023-04-03T14:57:28;2.28;;;1.73;;
9823;SDS011;4951;50.778;7.196;2023-04-03T15:00:21;3.50;;;1.80;;
9823;SDS011;4951;50.778;7.196;2023-04-03T15:02:50;2.63;;;1.60;;
9823;SDS011;4951;50.778;7.196;2023-04-03T15:05:17;2.30;;;1.58;;
9823;SDS011;4951;50.778;7.196;2023-04-03T15:07:47;2.17;;;1.50;;
9823;SDS011;4951;50.778;7.196;2023-04-03T15:10:20;1.87;;;1.53;;
9823;SDS011;4951;50.778;7.196;2023-04-03T15:12:53;4.33;;;1.70;;
9823;SDS011;4951;50.778;7.196;2023-04-03T15:15:21;2.47;;;1.50;;
9823;SDS011;4951;50.778;7.196;2023-04-03T15:17:50;2.97;;;1.60;;
9823;SDS011;4951;50.778;7.196;2023-04-03T15:20:22;2.83;;;1.70;;
9823;SDS011;4951;50.778;7.196;2023-04-03T15:23:00;2.00;;;1.63;;
9823;SDS011;4951;50.778;7.196;2023-04-03T15:25:28;3.20;;;1.50;;
9823;SDS011;4951;50.778;7.196;2023-04-03T15:27:58;1.70;;;1.30;;
9823;SDS011;4951;50.778;7.196;2023-04-03T15:30:42;3.27;;;1.57;;
9823;SDS011;4951;50.778;7.196;2023-04-03T15:33:37;3.17;;;1.77;;
9823;SDS011;4951;50.778;7.196;2023-04-03T15:36:25;3.33;;;1.40;;
9823;SDS011;4951;50.778;7.196;2023-04-03T15:39:19;2.43;;;1.40;;
9823;SDS011;4951;50.778;7.196;2023-04-03T15:42:12;2.90;;;1.43;;
9823;SDS011;4951;50.778;7.196;2023-04-03T15:44:49;3.03;;;1.70;;
9823;SDS011;4951;50.778;7.196;2023-04-03T15:47:18;2.97;;;1.87;;
9823;SDS011;4951;50.778;7.196;2023-04-03T15:49:46;2.97;;;1.63;;
9823;SDS011;4951;50.778;7.196;2023-04-03T15:52:17;2.53;;;1.60;;
9823;SDS011;4951;50.778;7.196;2023-04-03T15:58:41;3.27;;;1.60;;
9823;SDS011;4951;50.778;7.196;2023-04-03T16:01:36;2.00;;;1.40;;
9823;SDS011;4951;50.778;7.196;2023-04-03T16:04:06;2.00;;;1.50;;
9823;SDS011;4951;50.778;7.196;2023-04-03T16:06:47;1.83;;;1.40;;
9823;SDS011;4951;50.778;7.196;2023-04-03T16:09:15;1.67;;;1.37;;
9823;SDS011;4951;50.778;7.196;2023-04-03T16:15:06;3.23;;;1.50;;
9823;SDS011;4951;50.778;7.196;2023-04-03T16:17:53;2.00;;;1.33;;
9823;SDS011;4951;50.778;7.196;2023-04-03T16:23:45;3.50;;;1.40;;
9823;SDS011;4951;50.778;7.196;2023-04-03T16:26:14;2.30;;;1.40;;
9823;SDS011;4951;50.778;7.196;2023-04-03T16:28:45;3.70;;;1.43;;
9823;SDS011;4951;50.778;7.196;2023-04-03T16:31:29;2.67;;;1.60;;
9823;SDS011;4951;50.778;7.196;2023-04-03T16:34:10;3.67;;;1.60;;
9823;SDS011;4951;50.778;7.196;2023-04-03T16:37:01;1.60;;;1.33;;
9823;SDS011;4951;50.778;7.196;2023-04-03T16:39:28;2.10;;;1.63;;
9823;SDS011;4951;50.778;7.196;2023-04-03T16:42:21;2.67;;;1.50;;
9823;SDS011;4951;50.778;7.196;2023-04-03T16:44:55;2.53;;;1.70;;
9823;SDS011;4951;50.778;7.196;2023-04-03T16:47:24;2.20;;;1.50;;
9823;SDS011;4951;50.778;7.196;2023-04-03T16:49:52;2.47;;;1.27;;
9823;SDS011;4951;50.778;7.196;2023-04-03T16:52:19;4.23;;;1.67;;
9823;SDS011;4951;50.778;7.196;2023-04-03T16:55:26;2.77;;;1.50;;
9823;SDS011;4951;50.778;7.196;2023-04-03T16:57:55;2.53;;;1.50;;
9823;SDS011;4951;50.778;7.196;2023-04-03T17:07:24;1.67;;;1.40;;
9823;SDS011;4951;50.778;7.196;2023-04-03T17:09:52;2.17;;;1.30;;
9823;SDS011;4951;50.778;7.196;2023-04-03T17:15:17;2.00;;;1.53;;
9823;SDS011;4951;50.778;7.196;2023-04-03T17:17:47;2.50;;;1.53;;
9823;SDS011;4951;50.778;7.196;2023-04-03T17:20:35;2.47;;;1.50;;
9823;SDS011;4951;50.778;7.196;2023-04-03T17:23:04;1.77;;;1.30;;
9823;SDS011;4951;50.778;7.196;2023-04-03T17:25:31;3.40;;;1.60;;
9823;SDS011;4951;50.778;7.196;2023-04-03T17:28:10;4.63;;;1.63;;
9823;SDS011;4951;50.778;7.196;2023-04-03T17:30:47;2.47;;;1.30;;
9823;SDS011;4951;50.778;7.196;2023-04-03T17:33:14;2.00;;;1.33;;
9823;SDS011;4951;50.778;7.196;2023-04-03T17:35:43;3.57;;;1.50;;
9823;SDS011;4951;50.778;7.196;2023-04-03T17:38:11;2.33;;;1.40;;
9823;SDS011;4951;50.778;7.196;2023-04-03T17:40:39;1.70;;;1.53;;
9823;SDS011;4951;50.778;7.196;2023-04-03T17:43:08;2.70;;;1.77;;
9823;SDS011;4951;50.778;7.196;2023-04-03T17:45:37;1.80;;;1.50;;
9823;SDS011;4951;50.778;7.196;2023-04-03T17:48:05;5.37;;;2.10;;
9823;SDS011;4951;50.778;7.196;2023-04-03T17:50:36;2.70;;;1.67;;
9823;SDS011;4951;50.778;7.196;2023-04-03T17:53:04;2.30;;;1.47;;
9823;SDS011;4951;50.778;7.196;2023-04-03T17:55:38;2.23;;;1.70;;
9823;SDS011;4951;50.778;7.196;2023-04-03T17:58:11;2.80;;;1.77;;
9823;SDS011;4951;50.778;7.196;2023-04-03T18:00:39;2.97;;;1.93;;
9823;SDS011;4951;50.778;7.196;2023-04-03T18:03:07;4.10;;;1.90;;
9823;SDS011;4951;50.778;7.196;2023-04-03T18:05:37;3.20;;;1.87;;
9823;SDS011;4951;50.778;7.196;2023-04-03T18:08:08;2.17;;;1.60;;
9823;SDS011;4951;50.778;7.196;2023-04-03T18:10:42;3.13;;;1.47;;
9823;SDS011;4951;50.778;7.196;2023-04-03T18:13:12;2.13;;;1.67;;
9823;SDS011;4951;50.778;7.196;2023-04-03T18:15:40;3.37;;;2.03;;
9823;SDS011;4951;50.778;7.196;2023-04-03T18:18:10;2.70;;;1.70;;
9823;SDS011;4951;50.778;7.196;2023-04-03T18:20:56;1.83;;;1.50;;
9823;SDS011;4951;50.778;7.196;2023-04-03T18:23:55;2.47;;;1.83;;